DAL59 EGLL-KBOS
Flight info
| Callsign | DAL59 |
|---|---|
| Flight time | N/A |
| Altitude | 36000 |
| Route | CPT L9 BUCGO DCT FELCA DCT OFSOX DCT SLANY DCT MALOT/M081F380 NATD RIKAL/N0473F380 N572A TOPPS DCT AJJAY OOSHN5 |
| Aircraft | A339/H-SADE1E2E3GHIJ1J3J5M1P2RWXY/LB2D1 |
Departure
| Time | N/A |
|---|---|
| Airport | London Heathrow Airport (EGLL) |
Arrival
| Time | 2026-05-04 21:15 |
|---|---|
| Airport | Boston Logan International Airport (KBOS) |
| Time | Latitude | Longitude | Altitude | Speed | Heading |
|---|---|---|---|---|---|
| 2026-05-04 20:46 | 43.67978 | -69.62463 | 27777 ft | 391 kts | 207° |
| 2026-05-04 20:46 | 43.65425 | -69.63628 | 27195 ft | 380 kts | 206° |
| 2026-05-04 20:46 | 43.62942 | -69.64734 | 26844 ft | 373 kts | 206° |
| 2026-05-04 20:47 | 43.60498 | -69.65825 | 26477 ft | 368 kts | 206° |
| 2026-05-04 20:47 | 43.58085 | -69.66908 | 26102 ft | 364 kts | 206° |
| 2026-05-04 20:47 | 43.55693 | -69.67982 | 25766 ft | 361 kts | 206° |
| 2026-05-04 20:47 | 43.53975 | -69.68755 | 25512 ft | 359 kts | 206° |
| 2026-05-04 20:48 | 43.51601 | -69.69830 | 24882 ft | 367 kts | 206° |
| 2026-05-04 20:48 | 43.50136 | -69.70495 | 24666 ft | 373 kts | 206° |
| 2026-05-04 20:48 | 43.46837 | -69.71983 | 24223 ft | 375 kts | 205° |
| 2026-05-04 20:48 | 43.44362 | -69.73092 | 23935 ft | 376 kts | 205° |
| 2026-05-04 20:49 | 43.41886 | -69.74201 | 23554 ft | 375 kts | 205° |
| 2026-05-04 20:49 | 43.39413 | -69.75307 | 23167 ft | 374 kts | 205° |
| 2026-05-04 20:49 | 43.36927 | -69.76419 | 22753 ft | 372 kts | 205° |
| 2026-05-04 20:49 | 43.34490 | -69.77509 | 22363 ft | 369 kts | 205° |
| 2026-05-04 20:50 | 43.32070 | -69.78587 | 21996 ft | 364 kts | 205° |
| 2026-05-04 20:50 | 43.29677 | -69.79657 | 21641 ft | 361 kts | 205° |
| 2026-05-04 20:50 | 43.27306 | -69.80716 | 21294 ft | 357 kts | 205° |
| 2026-05-04 20:50 | 43.24966 | -69.81758 | 20949 ft | 353 kts | 205° |
| 2026-05-04 20:51 | 43.22657 | -69.82787 | 20605 ft | 349 kts | 205° |
| 2026-05-04 20:51 | 43.20340 | -69.83818 | 20259 ft | 345 kts | 205° |
| 2026-05-04 20:51 | 43.18069 | -69.84825 | 19918 ft | 342 kts | 205° |
| 2026-05-04 20:51 | 43.15825 | -69.85822 | 19579 ft | 339 kts | 205° |
| 2026-05-04 20:52 | 43.13603 | -69.86809 | 19240 ft | 336 kts | 205° |
| 2026-05-04 20:52 | 43.11387 | -69.87794 | 18900 ft | 334 kts | 205° |
| 2026-05-04 20:52 | 43.09195 | -69.88768 | 18561 ft | 331 kts | 205° |
| 2026-05-04 20:52 | 43.07016 | -69.89735 | 18220 ft | 329 kts | 205° |
| 2026-05-04 20:53 | 43.04850 | -69.90694 | 17880 ft | 326 kts | 205° |
| 2026-05-04 20:53 | 43.02913 | -69.91553 | 17572 ft | 324 kts | 205° |
| 2026-05-04 20:53 | 43.00779 | -69.92499 | 17235 ft | 322 kts | 205° |
| 2026-05-04 20:53 | 42.98629 | -69.93452 | 16888 ft | 320 kts | 205° |
| 2026-05-04 20:54 | 42.96543 | -69.94374 | 16547 ft | 318 kts | 205° |
| 2026-05-04 20:54 | 42.94446 | -69.95301 | 16202 ft | 316 kts | 205° |
| 2026-05-04 20:54 | 42.92357 | -69.96224 | 15855 ft | 315 kts | 205° |
| 2026-05-04 20:54 | 42.90281 | -69.97141 | 15508 ft | 313 kts | 205° |
| 2026-05-04 20:55 | 42.88203 | -69.98055 | 15158 ft | 310 kts | 205° |
| 2026-05-04 20:55 | 42.86156 | -69.98955 | 14812 ft | 309 kts | 205° |
| 2026-05-04 20:55 | 42.84123 | -69.99850 | 14467 ft | 307 kts | 205° |
| 2026-05-04 20:55 | 42.82098 | -70.00738 | 14125 ft | 305 kts | 205° |
| 2026-05-04 20:56 | 42.80084 | -70.01620 | 13783 ft | 303 kts | 205° |
| 2026-05-04 20:56 | 42.78081 | -70.02500 | 13444 ft | 300 kts | 205° |
| 2026-05-04 20:56 | 42.76104 | -70.03374 | 13108 ft | 297 kts | 206° |
| 2026-05-04 20:56 | 42.74174 | -70.04318 | 12802 ft | 294 kts | 207° |
| 2026-05-04 20:57 | 42.72270 | -70.05260 | 12505 ft | 291 kts | 207° |
| 2026-05-04 20:57 | 42.70380 | -70.06191 | 12206 ft | 289 kts | 207° |
| 2026-05-04 20:57 | 42.68505 | -70.07117 | 11910 ft | 286 kts | 207° |
| 2026-05-04 20:57 | 42.66658 | -70.08067 | 11607 ft | 281 kts | 212° |
| 2026-05-04 20:58 | 42.65136 | -70.09572 | 11299 ft | 269 kts | 232° |
| 2026-05-04 20:58 | 42.64099 | -70.11657 | 10999 ft | 261 kts | 247° |
| 2026-05-04 20:58 | 42.63335 | -70.13883 | 10708 ft | 259 kts | 248° |
| 2026-05-04 20:58 | 42.62584 | -70.16087 | 10419 ft | 257 kts | 248° |
| 2026-05-04 20:59 | 42.61835 | -70.18274 | 10134 ft | 256 kts | 248° |
| 2026-05-04 20:59 | 42.61094 | -70.20438 | 9963 ft | 249 kts | 247° |
| 2026-05-04 20:59 | 42.60480 | -70.22566 | 9947 ft | 239 kts | 255° |
| 2026-05-04 20:59 | 42.60139 | -70.24783 | 9958 ft | 246 kts | 263° |
| 2026-05-04 21:00 | 42.59996 | -70.27112 | 9973 ft | 250 kts | 265° |
| 2026-05-04 21:00 | 42.59887 | -70.29462 | 9980 ft | 251 kts | 265° |
| 2026-05-04 21:00 | 42.59782 | -70.31821 | 9987 ft | 251 kts | 265° |
| 2026-05-04 21:00 | 42.59670 | -70.34183 | 9994 ft | 251 kts | 265° |
| 2026-05-04 21:01 | 42.59555 | -70.36568 | 9994 ft | 251 kts | 265° |
| 2026-05-04 21:01 | 42.59441 | -70.38934 | 9995 ft | 251 kts | 265° |
| 2026-05-04 21:01 | 42.59330 | -70.41304 | 9992 ft | 251 kts | 265° |
| 2026-05-04 21:01 | 42.59217 | -70.43671 | 9856 ft | 252 kts | 265° |
| 2026-05-04 21:02 | 42.59104 | -70.46022 | 9599 ft | 248 kts | 265° |
| 2026-05-04 21:02 | 42.58990 | -70.48341 | 9299 ft | 248 kts | 265° |
| 2026-05-04 21:02 | 42.58886 | -70.50670 | 9014 ft | 247 kts | 266° |
| 2026-05-04 21:02 | 42.58779 | -70.53017 | 8710 ft | 247 kts | 265° |
| 2026-05-04 21:03 | 42.58638 | -70.55321 | 8362 ft | 247 kts | 262° |
| 2026-05-04 21:03 | 42.58328 | -70.57610 | 8018 ft | 248 kts | 258° |
| 2026-05-04 21:03 | 42.57869 | -70.59870 | 7676 ft | 249 kts | 255° |
| 2026-05-04 21:03 | 42.57388 | -70.62109 | 7371 ft | 247 kts | 255° |
| 2026-05-04 21:04 | 42.56905 | -70.64328 | 7089 ft | 246 kts | 255° |
| 2026-05-04 21:04 | 42.56421 | -70.66549 | 6808 ft | 243 kts | 255° |
| 2026-05-04 21:04 | 42.56031 | -70.68806 | 6478 ft | 242 kts | 268° |
| 2026-05-04 21:04 | 42.56459 | -70.71008 | 6120 ft | 248 kts | 297° |
| 2026-05-04 21:05 | 42.57524 | -70.72854 | 5885 ft | 248 kts | 303° |
| 2026-05-04 21:05 | 42.58587 | -70.74678 | 5592 ft | 246 kts | 302° |
| 2026-05-04 21:05 | 42.59655 | -70.76473 | 5338 ft | 247 kts | 308° |
| 2026-05-04 21:05 | 42.61183 | -70.77606 | 5178 ft | 260 kts | 344° |
| 2026-05-04 21:06 | 42.62993 | -70.77330 | 5049 ft | 269 kts | 12° |
| 2026-05-04 21:06 | 42.64746 | -70.76476 | 4887 ft | 259 kts | 5° |
| 2026-05-04 21:06 | 42.66414 | -70.76582 | 4552 ft | 229 kts | 325° |
| 2026-05-04 21:06 | 42.67524 | -70.77910 | 4156 ft | 207 kts | 293° |
| 2026-05-04 21:07 | 42.68030 | -70.79662 | 4021 ft | 200 kts | 275° |
| 2026-05-04 21:07 | 42.68069 | -70.81541 | 4018 ft | 199 kts | 258° |
| 2026-05-04 21:07 | 42.67611 | -70.83305 | 4003 ft | 199 kts | 240° |
| 2026-05-04 21:07 | 42.66720 | -70.84748 | 4005 ft | 202 kts | 226° |
| 2026-05-04 21:08 | 42.65614 | -70.85949 | 4001 ft | 204 kts | 218° |
| 2026-05-04 21:08 | 42.64346 | -70.86879 | 4000 ft | 207 kts | 210° |
| 2026-05-04 21:08 | 42.63010 | -70.87636 | 4001 ft | 208 kts | 207° |
| 2026-05-04 21:08 | 42.61666 | -70.88332 | 4000 ft | 208 kts | 206° |
| 2026-05-04 21:09 | 42.60293 | -70.89016 | 3995 ft | 204 kts | 206° |
| 2026-05-04 21:09 | 42.58990 | -70.89646 | 3985 ft | 192 kts | 206° |
| 2026-05-04 21:09 | 42.57763 | -70.90228 | 3986 ft | 179 kts | 206° |
| 2026-05-04 21:09 | 42.56596 | -70.90788 | 3872 ft | 171 kts | 207° |
| 2026-05-04 21:10 | 42.55483 | -70.91327 | 3653 ft | 169 kts | 207° |
| 2026-05-04 21:10 | 42.54383 | -70.91860 | 3434 ft | 167 kts | 207° |
| 2026-05-04 21:10 | 42.53286 | -70.92393 | 3236 ft | 165 kts | 207° |
| 2026-05-04 21:10 | 42.52211 | -70.92914 | 3051 ft | 163 kts | 206° |
| 2026-05-04 21:11 | 42.51150 | -70.93424 | 2861 ft | 161 kts | 206° |
| 2026-05-04 21:11 | 42.50098 | -70.93928 | 2675 ft | 159 kts | 207° |
| 2026-05-04 21:11 | 42.49076 | -70.94416 | 2451 ft | 151 kts | 207° |
| 2026-05-04 21:11 | 42.48127 | -70.94875 | 2257 ft | 140 kts | 207° |
| 2026-05-04 21:12 | 42.47241 | -70.95304 | 2062 ft | 131 kts | 207° |
| 2026-05-04 21:12 | 42.46402 | -70.95709 | 1884 ft | 123 kts | 207° |
| 2026-05-04 21:12 | 42.45602 | -70.96094 | 1737 ft | 123 kts | 208° |
| 2026-05-04 21:12 | 42.44795 | -70.96490 | 1577 ft | 123 kts | 208° |
| 2026-05-04 21:13 | 42.43995 | -70.96879 | 1421 ft | 122 kts | 208° |
| 2026-05-04 21:13 | 42.43184 | -70.97271 | 1249 ft | 122 kts | 207° |
| 2026-05-04 21:13 | 42.42386 | -70.97657 | 1086 ft | 122 kts | 207° |
| 2026-05-04 21:13 | 42.41575 | -70.98048 | 918 ft | 122 kts | 206° |
| 2026-05-04 21:14 | 42.40769 | -70.98438 | 748 ft | 123 kts | 205° |
| 2026-05-04 21:14 | 42.39968 | -70.98826 | 573 ft | 123 kts | 204° |
| 2026-05-04 21:14 | 42.39151 | -70.99221 | 419 ft | 125 kts | 204° |
| 2026-05-04 21:14 | 42.38334 | -70.99616 | 257 ft | 124 kts | 204° |
| 2026-05-04 21:15 | 42.37516 | -71.00026 | 85 ft | 125 kts | 202° |
| 2026-05-04 21:15 | 42.36706 | -71.00404 | 30 ft | 115 kts | 204° |
| 2026-05-04 21:15 | 42.36145 | -71.00690 | 28 ft | 44 kts | 196° |
| 2026-05-04 21:15 | 42.35977 | -71.00813 | 29 ft | 24 kts | 224° |
| 2026-05-04 21:16 | 42.35928 | -71.00889 | 30 ft | 2 kts | 231° |
| 2026-05-04 21:16 | 42.35914 | -71.00913 | 30 ft | 4 kts | 231° |
| 2026-05-04 21:16 | 42.35905 | -71.00927 | 30 ft | 0 kts | 231° |
| 2026-05-04 21:16 | 42.35873 | -71.00980 | 31 ft | 13 kts | 231° |
| 2026-05-04 21:17 | 42.35836 | -71.01088 | 31 ft | 12 kts | 263° |
| 2026-05-04 21:17 | 42.35841 | -71.01208 | 32 ft | 13 kts | 276° |
| 2026-05-04 21:17 | 42.35853 | -71.01335 | 32 ft | 9 kts | 276° |
| 2026-05-04 21:17 | 42.35858 | -71.01393 | 32 ft | 5 kts | 276° |
| 2026-05-04 21:18 | 42.35867 | -71.01459 | 32 ft | 9 kts | 283° |
| 2026-05-04 21:18 | 42.35909 | -71.01528 | 32 ft | 8 kts | 356° |
| 2026-05-04 21:18 | 42.36013 | -71.01485 | 31 ft | 21 kts | 18° |
| 2026-05-04 21:18 | 42.36175 | -71.01410 | 31 ft | 23 kts | 19° |
| 2026-05-04 21:19 | 42.36333 | -71.01334 | 30 ft | 23 kts | 19° |
| 2026-05-04 21:19 | 42.36488 | -71.01258 | 29 ft | 23 kts | 20° |
| 2026-05-04 21:19 | 42.36642 | -71.01186 | 29 ft | 23 kts | 19° |
| 2026-05-04 21:19 | 42.36770 | -71.01137 | 28 ft | 15 kts | 348° |
| 2026-05-04 21:20 | 42.36854 | -71.01228 | 28 ft | 15 kts | 314° |
| 2026-05-04 21:20 | 42.36930 | -71.01337 | 28 ft | 16 kts | 311° |
| 2026-05-04 21:20 | 42.37012 | -71.01448 | 28 ft | 16 kts | 319° |
| 2026-05-04 21:20 | 42.37098 | -71.01556 | 28 ft | 17 kts | 316° |
| 2026-05-04 21:21 | 42.37143 | -71.01660 | 28 ft | 10 kts | 252° |
| 2026-05-04 21:21 | 42.37100 | -71.01744 | 28 ft | 10 kts | 218° |
| 2026-05-04 21:21 | 42.37060 | -71.01777 | 28 ft | 4 kts | 209° |
| 2026-05-04 21:21 | 42.37050 | -71.01784 | 28 ft | 0 kts | 209° |